MMMZ/MZT METAR and TAF weather

Enter ICAO airport designator
Station Type Date Time Source
MMMZ METAR 2019/02/16 18:01 UTC NOAA

MMMZ 161801Z RTD 26005KT 15SM SKC 27/16 A2989 RMK SLP117 54000 975


Station Type Date Time Source
MMMZ Decoded METAR 2019/02/16 18:01 UTC NOAA

Mazatlan / G. Buelna, Mexico (MMMZ) 23-10N 106-16W
Feb 16, 2019 - 01:01 PM EST / 2019.02.16 1801 UTC
Wind: from the W (260 degrees) at 6 MPH (5 KT):0
Visibility: 15 mile(s):0
Sky conditions: clear
Temperature: 80 F (27 C)
Dew Point: 60 F (16 C)
Relative Humidity: 50%
Pressure (altimeter): 29.89 in. Hg (1012 hPa)
Pressure tendency: the same as three hours ago
ob: MMMZ 161801Z RTD 26005KT 15SM SKC 27/16 A2989 RMK SLP117 54000 975
cycle: 18

Station Type Date Time Source
MMMZ TAF 2019/02/16 18:03 UTC NOAA

TAF TAF MMMZ 161700Z 1618/1724 20012KT P6SM SKC TX30/1620Z TN14/1712Z
FM170300 00000KT P6SM SKC
FM171800 23010KT P6SM SKC


Example: see airport list